sensor_id;sensor_type;location;lat;lon;timestamp;temperature;humidity
35970;DHT22;22448;51.298;6.430;2023-12-04T00:01:16;-0.40;99.90
35970;DHT22;22448;51.298;6.430;2023-12-04T00:03:43;-0.40;99.90
35970;DHT22;22448;51.298;6.430;2023-12-04T00:06:11;-0.40;99.90
35970;DHT22;22448;51.298;6.430;2023-12-04T00:08:39;-0.40;99.90
35970;DHT22;22448;51.298;6.430;2023-12-04T00:11:07;-0.40;99.90
35970;DHT22;22448;51.298;6.430;2023-12-04T00:13:34;-0.40;99.90
35970;DHT22;22448;51.298;6.430;2023-12-04T00:16:02;-0.40;99.90
35970;DHT22;22448;51.298;6.430;2023-12-04T00:18:29;-0.40;99.90
35970;DHT22;22448;51.298;6.430;2023-12-04T00:20:57;-0.40;99.90
35970;DHT22;22448;51.298;6.430;2023-12-04T00:23:24;-0.40;99.90
35970;DHT22;22448;51.298;6.430;2023-12-04T00:25:51;-0.40;99.90
35970;DHT22;22448;51.298;6.430;2023-12-04T00:28:18;-0.30;99.90
35970;DHT22;22448;51.298;6.430;2023-12-04T00:30:45;-0.30;99.90
35970;DHT22;22448;51.298;6.430;2023-12-04T00:33:12;-0.40;99.90
35970;DHT22;22448;51.298;6.430;2023-12-04T00:35:39;-0.40;99.90
35970;DHT22;22448;51.298;6.430;2023-12-04T00:38:06;-0.30;99.90
35970;DHT22;22448;51.298;6.430;2023-12-04T00:40:33;-0.30;99.90
35970;DHT22;22448;51.298;6.430;2023-12-04T00:43:00;-0.30;99.90
35970;DHT22;22448;51.298;6.430;2023-12-04T00:45:28;-0.30;99.90
35970;DHT22;22448;51.298;6.430;2023-12-04T00:47:55;-0.30;99.90
35970;DHT22;22448;51.298;6.430;2023-12-04T00:50:22;-0.30;99.90
35970;DHT22;22448;51.298;6.430;2023-12-04T00:52:49;-0.30;99.90
35970;DHT22;22448;51.298;6.430;2023-12-04T00:55:16;-0.30;99.90
35970;DHT22;22448;51.298;6.430;2023-12-04T00:57:43;-0.30;99.90
35970;DHT22;22448;51.298;6.430;2023-12-04T01:00:10;-0.30;99.90
35970;DHT22;22448;51.298;6.430;2023-12-04T01:02:38;-0.30;99.90
35970;DHT22;22448;51.298;6.430;2023-12-04T01:05:05;-0.30;99.90
35970;DHT22;22448;51.298;6.430;2023-12-04T01:07:32;-0.30;99.90
35970;DHT22;22448;51.298;6.430;2023-12-04T01:09:59;-0.30;99.90
35970;DHT22;22448;51.298;6.430;2023-12-04T01:12:26;-0.30;99.90
35970;DHT22;22448;51.298;6.430;2023-12-04T01:14:53;-0.30;99.90
35970;DHT22;22448;51.298;6.430;2023-12-04T01:17:20;-0.30;99.90
35970;DHT22;22448;51.298;6.430;2023-12-04T01:19:47;-0.30;99.90
35970;DHT22;22448;51.298;6.430;2023-12-04T01:22:15;-0.30;99.90
35970;DHT22;22448;51.298;6.430;2023-12-04T01:24:42;-0.30;99.90
35970;DHT22;22448;51.298;6.430;2023-12-04T01:27:09;-0.30;99.90
35970;DHT22;22448;51.298;6.430;2023-12-04T01:29:36;-0.30;99.90
35970;DHT22;22448;51.298;6.430;2023-12-04T01:32:03;-0.30;99.90
35970;DHT22;22448;51.298;6.430;2023-12-04T01:34:30;-0.30;99.90
35970;DHT22;22448;51.298;6.430;2023-12-04T01:36:57;-0.30;99.90
35970;DHT22;22448;51.298;6.430;2023-12-04T01:39:24;-0.40;99.90
35970;DHT22;22448;51.298;6.430;2023-12-04T01:41:51;-0.30;99.90
35970;DHT22;22448;51.298;6.430;2023-12-04T01:44:19;-0.40;99.90
35970;DHT22;22448;51.298;6.430;2023-12-04T01:46:46;-0.40;99.90
35970;DHT22;22448;51.298;6.430;2023-12-04T01:49:13;-0.40;99.90
35970;DHT22;22448;51.298;6.430;2023-12-04T01:51:40;-0.40;99.90
35970;DHT22;22448;51.298;6.430;2023-12-04T01:54:08;-0.40;99.90
35970;DHT22;22448;51.298;6.430;2023-12-04T01:56:36;-0.40;99.90
35970;DHT22;22448;51.298;6.430;2023-12-04T01:59:04;-0.40;99.90
35970;DHT22;22448;51.298;6.430;2023-12-04T02:01:31;-0.40;99.90
35970;DHT22;22448;51.298;6.430;2023-12-04T02:04:01;-0.40;99.90
35970;DHT22;22448;51.298;6.430;2023-12-04T02:06:29;-0.40;99.90
35970;DHT22;22448;51.298;6.430;2023-12-04T02:08:56;-0.40;99.90
35970;DHT22;22448;51.298;6.430;2023-12-04T02:11:24;-0.40;99.90
35970;DHT22;22448;51.298;6.430;2023-12-04T02:13:51;-0.40;99.90
35970;DHT22;22448;51.298;6.430;2023-12-04T02:16:18;-0.40;99.90
35970;DHT22;22448;51.298;6.430;2023-12-04T02:18:46;-0.40;99.90
35970;DHT22;22448;51.298;6.430;2023-12-04T02:21:14;-0.30;99.90
35970;DHT22;22448;51.298;6.430;2023-12-04T02:23:41;-0.30;99.90
35970;DHT22;22448;51.298;6.430;2023-12-04T02:26:15;-0.30;99.90
35970;DHT22;22448;51.298;6.430;2023-12-04T02:28:48;-0.30;99.90
35970;DHT22;22448;51.298;6.430;2023-12-04T02:31:18;-0.30;99.90
35970;DHT22;22448;51.298;6.430;2023-12-04T02:33:47;-0.30;99.90
35970;DHT22;22448;51.298;6.430;2023-12-04T02:36:15;-0.30;99.90
35970;DHT22;22448;51.298;6.430;2023-12-04T02:38:42;-0.30;99.90
35970;DHT22;22448;51.298;6.430;2023-12-04T02:41:10;-0.30;99.90
35970;DHT22;22448;51.298;6.430;2023-12-04T02:43:37;-0.30;99.90
35970;DHT22;22448;51.298;6.430;2023-12-04T02:46:04;-0.30;99.90
35970;DHT22;22448;51.298;6.430;2023-12-04T02:48:31;-0.30;99.90
35970;DHT22;22448;51.298;6.430;2023-12-04T02:50:59;-0.30;99.90
35970;DHT22;22448;51.298;6.430;2023-12-04T02:53:26;-0.30;99.90
35970;DHT22;22448;51.298;6.430;2023-12-04T02:55:53;-0.30;99.90
35970;DHT22;22448;51.298;6.430;2023-12-04T02:58:20;-0.30;99.90
35970;DHT22;22448;51.298;6.430;2023-12-04T03:00:47;-0.30;99.90
35970;DHT22;22448;51.298;6.430;2023-12-04T03:03:14;-0.30;99.90
35970;DHT22;22448;51.298;6.430;2023-12-04T03:05:41;-0.30;99.90
35970;DHT22;22448;51.298;6.430;2023-12-04T03:08:08;-0.30;99.90
35970;DHT22;22448;51.298;6.430;2023-12-04T03:10:35;-0.30;99.90
35970;DHT22;22448;51.298;6.430;2023-12-04T03:13:02;-0.30;99.90
35970;DHT22;22448;51.298;6.430;2023-12-04T03:15:29;-0.30;99.90
35970;DHT22;22448;51.298;6.430;2023-12-04T03:17:59;-0.30;99.90
35970;DHT22;22448;51.298;6.430;2023-12-04T03:20:31;-0.30;99.90
35970;DHT22;22448;51.298;6.430;2023-12-04T03:23:00;-0.30;99.90
35970;DHT22;22448;51.298;6.430;2023-12-04T03:25:27;-0.30;99.90
35970;DHT22;22448;51.298;6.430;2023-12-04T03:27:54;-0.30;99.90
35970;DHT22;22448;51.298;6.430;2023-12-04T03:30:21;-0.40;99.90
35970;DHT22;22448;51.298;6.430;2023-12-04T03:32:48;-0.40;99.90
35970;DHT22;22448;51.298;6.430;2023-12-04T03:35:15;-0.40;99.90
35970;DHT22;22448;51.298;6.430;2023-12-04T03:37:42;-0.40;99.90
35970;DHT22;22448;51.298;6.430;2023-12-04T03:40:10;-0.40;99.90
35970;DHT22;22448;51.298;6.430;2023-12-04T03:42:37;-0.40;99.90
35970;DHT22;22448;51.298;6.430;2023-12-04T03:45:04;-0.40;99.90
35970;DHT22;22448;51.298;6.430;2023-12-04T03:47:32;-0.40;99.90
35970;DHT22;22448;51.298;6.430;2023-12-04T03:49:59;-0.40;99.90
35970;DHT22;22448;51.298;6.430;2023-12-04T03:52:26;-0.40;99.90
35970;DHT22;22448;51.298;6.430;2023-12-04T03:54:53;-0.40;99.90
35970;DHT22;22448;51.298;6.430;2023-12-04T03:57:20;-0.50;99.90
35970;DHT22;22448;51.298;6.430;2023-12-04T03:59:47;-0.40;99.90
35970;DHT22;22448;51.298;6.430;2023-12-04T04:02:14;-0.50;99.90
35970;DHT22;22448;51.298;6.430;2023-12-04T04:04:41;-0.50;99.90
35970;DHT22;22448;51.298;6.430;2023-12-04T04:07:09;-0.40;99.90
35970;DHT22;22448;51.298;6.430;2023-12-04T04:09:35;-0.40;99.90
35970;DHT22;22448;51.298;6.430;2023-12-04T04:12:03;-0.40;99.90
35970;DHT22;22448;51.298;6.430;2023-12-04T04:14:30;-0.40;99.90
35970;DHT22;22448;51.298;6.430;2023-12-04T04:16:57;-0.40;99.90
35970;DHT22;22448;51.298;6.430;2023-12-04T04:19:24;-0.40;99.90
35970;DHT22;22448;51.298;6.430;2023-12-04T04:21:51;-0.40;99.90
35970;DHT22;22448;51.298;6.430;2023-12-04T04:24:18;-0.40;99.90
35970;DHT22;22448;51.298;6.430;2023-12-04T04:26:45;-0.40;99.90
35970;DHT22;22448;51.298;6.430;2023-12-04T04:29:13;-0.40;99.90
35970;DHT22;22448;51.298;6.430;2023-12-04T04:31:40;-0.40;99.90
35970;DHT22;22448;51.298;6.430;2023-12-04T04:34:07;-0.40;99.90
35970;DHT22;22448;51.298;6.430;2023-12-04T04:36:34;-0.30;99.90
35970;DHT22;22448;51.298;6.430;2023-12-04T04:39:03;-0.40;99.90
35970;DHT22;22448;51.298;6.430;2023-12-04T04:41:30;-0.40;99.90
35970;DHT22;22448;51.298;6.430;2023-12-04T04:43:58;-0.40;99.90
35970;DHT22;22448;51.298;6.430;2023-12-04T04:46:25;-0.40;99.90
35970;DHT22;22448;51.298;6.430;2023-12-04T04:48:53;-0.40;99.90
35970;DHT22;22448;51.298;6.430;2023-12-04T04:51:21;-0.40;99.90
35970;DHT22;22448;51.298;6.430;2023-12-04T04:53:48;-0.40;99.90
35970;DHT22;22448;51.298;6.430;2023-12-04T04:56:16;-0.40;99.90
35970;DHT22;22448;51.298;6.430;2023-12-04T04:58:43;-0.40;99.90
35970;DHT22;22448;51.298;6.430;2023-12-04T05:01:11;-0.40;99.90
35970;DHT22;22448;51.298;6.430;2023-12-04T05:03:38;-0.40;99.90
35970;DHT22;22448;51.298;6.430;2023-12-04T05:06:05;-0.40;99.90
35970;DHT22;22448;51.298;6.430;2023-12-04T05:08:32;-0.50;99.90
35970;DHT22;22448;51.298;6.430;2023-12-04T05:10:59;-0.50;99.90
35970;DHT22;22448;51.298;6.430;2023-12-04T05:13:26;-0.50;99.90
35970;DHT22;22448;51.298;6.430;2023-12-04T05:15:54;-0.50;99.90
35970;DHT22;22448;51.298;6.430;2023-12-04T05:18:21;-0.50;99.90
35970;DHT22;22448;51.298;6.430;2023-12-04T05:20:48;-0.40;99.90
35970;DHT22;22448;51.298;6.430;2023-12-04T05:23:15;-0.50;99.90
35970;DHT22;22448;51.298;6.430;2023-12-04T05:25:42;-0.50;99.90
35970;DHT22;22448;51.298;6.430;2023-12-04T05:28:16;-0.50;99.90
35970;DHT22;22448;51.298;6.430;2023-12-04T05:30:43;-0.50;99.90
35970;DHT22;22448;51.298;6.430;2023-12-04T05:33:10;-0.50;99.90
35970;DHT22;22448;51.298;6.430;2023-12-04T05:35:38;-0.50;99.90
35970;DHT22;22448;51.298;6.430;2023-12-04T05:38:05;-0.50;99.90
35970;DHT22;22448;51.298;6.430;2023-12-04T05:40:32;-0.50;99.90
35970;DHT22;22448;51.298;6.430;2023-12-04T05:42:59;-0.50;99.90
35970;DHT22;22448;51.298;6.430;2023-12-04T05:45:26;-0.50;99.90
35970;DHT22;22448;51.298;6.430;2023-12-04T05:47:53;-0.50;99.90
35970;DHT22;22448;51.298;6.430;2023-12-04T05:50:21;-0.40;99.90
35970;DHT22;22448;51.298;6.430;2023-12-04T05:52:48;-0.40;99.90
35970;DHT22;22448;51.298;6.430;2023-12-04T05:55:15;-0.40;99.90
35970;DHT22;22448;51.298;6.430;2023-12-04T05:57:42;-0.40;99.90
35970;DHT22;22448;51.298;6.430;2023-12-04T06:00:10;-0.40;99.90
35970;DHT22;22448;51.298;6.430;2023-12-04T06:02:42;-0.40;99.90
35970;DHT22;22448;51.298;6.430;2023-12-04T06:05:10;-0.40;99.90
35970;DHT22;22448;51.298;6.430;2023-12-04T06:07:38;-0.30;99.90
35970;DHT22;22448;51.298;6.430;2023-12-04T06:10:05;-0.30;99.90
35970;DHT22;22448;51.298;6.430;2023-12-04T06:12:33;-0.30;99.90
35970;DHT22;22448;51.298;6.430;2023-12-04T06:15:00;-0.30;99.90
35970;DHT22;22448;51.298;6.430;2023-12-04T06:17:28;-0.30;99.90
35970;DHT22;22448;51.298;6.430;2023-12-04T06:19:55;-0.30;99.90
35970;DHT22;22448;51.298;6.430;2023-12-04T06:22:22;-0.30;99.90
35970;DHT22;22448;51.298;6.430;2023-12-04T06:24:49;-0.30;99.90
35970;DHT22;22448;51.298;6.430;2023-12-04T06:27:18;-0.30;99.90
35970;DHT22;22448;51.298;6.430;2023-12-04T06:29:48;-0.30;99.90
35970;DHT22;22448;51.298;6.430;2023-12-04T06:32:19;-0.30;99.90
35970;DHT22;22448;51.298;6.430;2023-12-04T06:34:46;-0.30;99.90
35970;DHT22;22448;51.298;6.430;2023-12-04T06:37:14;-0.30;99.90
35970;DHT22;22448;51.298;6.430;2023-12-04T06:39:45;-0.30;99.90
35970;DHT22;22448;51.298;6.430;2023-12-04T06:42:12;-0.30;99.90
35970;DHT22;22448;51.298;6.430;2023-12-04T06:44:40;-0.20;99.90
35970;DHT22;22448;51.298;6.430;2023-12-04T06:47:08;-0.20;99.90
35970;DHT22;22448;51.298;6.430;2023-12-04T06:49:36;-0.20;99.90
35970;DHT22;22448;51.298;6.430;2023-12-04T06:52:03;-0.20;99.90
35970;DHT22;22448;51.298;6.430;2023-12-04T06:54:30;-0.20;99.90
35970;DHT22;22448;51.298;6.430;2023-12-04T06:56:58;-0.20;99.90
35970;DHT22;22448;51.298;6.430;2023-12-04T06:59:25;-0.20;99.90
35970;DHT22;22448;51.298;6.430;2023-12-04T07:01:52;-0.20;99.90
35970;DHT22;22448;51.298;6.430;2023-12-04T07:04:19;-0.10;99.90
35970;DHT22;22448;51.298;6.430;2023-12-04T07:06:48;-0.10;99.90
35970;DHT22;22448;51.298;6.430;2023-12-04T07:09:16;-0.10;99.90
35970;DHT22;22448;51.298;6.430;2023-12-04T07:11:45;-0.10;99.90
35970;DHT22;22448;51.298;6.430;2023-12-04T07:14:13;-0.10;99.90
35970;DHT22;22448;51.298;6.430;2023-12-04T07:16:41;-0.10;99.90
35970;DHT22;22448;51.298;6.430;2023-12-04T07:19:09;-0.10;99.90
35970;DHT22;22448;51.298;6.430;2023-12-04T07:21:37;-0.10;99.90
35970;DHT22;22448;51.298;6.430;2023-12-04T07:24:04;-0.10;99.90
35970;DHT22;22448;51.298;6.430;2023-12-04T07:26:33;-0.10;99.90
35970;DHT22;22448;51.298;6.430;2023-12-04T07:29:01;-0.10;99.90
35970;DHT22;22448;51.298;6.430;2023-12-04T07:31:28;-0.10;99.90
35970;DHT22;22448;51.298;6.430;2023-12-04T07:33:56;-0.10;99.90
35970;DHT22;22448;51.298;6.430;2023-12-04T07:36:24;-0.10;99.90
35970;DHT22;22448;51.298;6.430;2023-12-04T07:38:52;-0.10;99.90
35970;DHT22;22448;51.298;6.430;2023-12-04T07:41:20;-0.10;99.90
35970;DHT22;22448;51.298;6.430;2023-12-04T07:43:48;-0.10;99.90
35970;DHT22;22448;51.298;6.430;2023-12-04T07:46:16;-0.10;99.90
35970;DHT22;22448;51.298;6.430;2023-12-04T07:48:43;-0.10;99.90
35970;DHT22;22448;51.298;6.430;2023-12-04T07:51:13;-0.10;99.90
35970;DHT22;22448;51.298;6.430;2023-12-04T07:53:40;-0.10;99.90
35970;DHT22;22448;51.298;6.430;2023-12-04T07:56:08;-0.10;99.90
35970;DHT22;22448;51.298;6.430;2023-12-04T07:58:35;-0.10;99.90
35970;DHT22;22448;51.298;6.430;2023-12-04T08:01:02;-0.10;99.90
35970;DHT22;22448;51.298;6.430;2023-12-04T08:03:29;0.00;99.90
35970;DHT22;22448;51.298;6.430;2023-12-04T08:05:57;0.00;99.90
35970;DHT22;22448;51.298;6.430;2023-12-04T08:08:25;0.00;99.90
35970;DHT22;22448;51.298;6.430;2023-12-04T08:10:52;0.00;99.90
35970;DHT22;22448;51.298;6.430;2023-12-04T08:13:20;0.00;99.90
35970;DHT22;22448;51.298;6.430;2023-12-04T08:15:47;0.10;99.90
35970;DHT22;22448;51.298;6.430;2023-12-04T08:18:14;0.10;99.90
35970;DHT22;22448;51.298;6.430;2023-12-04T08:20:41;0.20;99.90
35970;DHT22;22448;51.298;6.430;2023-12-04T08:23:09;0.20;99.90
35970;DHT22;22448;51.298;6.430;2023-12-04T08:25:36;0.20;99.90
35970;DHT22;22448;51.298;6.430;2023-12-04T08:28:05;0.20;99.90
35970;DHT22;22448;51.298;6.430;2023-12-04T08:30:32;0.20;99.90
35970;DHT22;22448;51.298;6.430;2023-12-04T08:32:59;0.20;99.90
35970;DHT22;22448;51.298;6.430;2023-12-04T08:35:27;0.20;99.90
35970;DHT22;22448;51.298;6.430;2023-12-04T08:37:54;0.20;99.90
35970;DHT22;22448;51.298;6.430;2023-12-04T08:40:21;0.30;99.90
35970;DHT22;22448;51.298;6.430;2023-12-04T08:42:49;0.30;99.90
35970;DHT22;22448;51.298;6.430;2023-12-04T08:45:16;0.40;99.90
35970;DHT22;22448;51.298;6.430;2023-12-04T08:47:45;0.40;99.90
35970;DHT22;22448;51.298;6.430;2023-12-04T08:50:13;0.40;99.90
35970;DHT22;22448;51.298;6.430;2023-12-04T08:52:40;0.40;99.90
35970;DHT22;22448;51.298;6.430;2023-12-04T08:55:10;0.40;99.90
35970;DHT22;22448;51.298;6.430;2023-12-04T08:57:37;0.40;99.90
35970;DHT22;22448;51.298;6.430;2023-12-04T09:00:05;0.50;99.90
35970;DHT22;22448;51.298;6.430;2023-12-04T09:02:33;0.50;99.90
35970;DHT22;22448;51.298;6.430;2023-12-04T09:05:03;0.50;99.90
35970;DHT22;22448;51.298;6.430;2023-12-04T09:07:30;0.50;99.90
35970;DHT22;22448;51.298;6.430;2023-12-04T09:10:00;0.50;99.90
35970;DHT22;22448;51.298;6.430;2023-12-04T09:12:36;0.50;99.90
35970;DHT22;22448;51.298;6.430;2023-12-04T09:15:05;0.50;99.90
35970;DHT22;22448;51.298;6.430;2023-12-04T09:17:34;0.50;99.90
35970;DHT22;22448;51.298;6.430;2023-12-04T09:20:06;0.50;99.90
35970;DHT22;22448;51.298;6.430;2023-12-04T09:22:33;0.50;99.90
35970;DHT22;22448;51.298;6.430;2023-12-04T09:25:18;0.50;99.90
35970;DHT22;22448;51.298;6.430;2023-12-04T09:27:45;0.50;99.90
35970;DHT22;22448;51.298;6.430;2023-12-04T09:30:13;0.50;99.90
35970;DHT22;22448;51.298;6.430;2023-12-04T09:32:40;0.50;99.90
35970;DHT22;22448;51.298;6.430;2023-12-04T09:35:08;0.60;99.90
35970;DHT22;22448;51.298;6.430;2023-12-04T09:37:36;0.60;99.90
35970;DHT22;22448;51.298;6.430;2023-12-04T09:40:03;0.70;99.90
35970;DHT22;22448;51.298;6.430;2023-12-04T09:42:32;0.80;99.90
35970;DHT22;22448;51.298;6.430;2023-12-04T09:45:00;0.80;99.90
35970;DHT22;22448;51.298;6.430;2023-12-04T09:47:29;0.80;99.90
35970;DHT22;22448;51.298;6.430;2023-12-04T09:49:58;0.70;99.90
35970;DHT22;22448;51.298;6.430;2023-12-04T09:52:30;0.70;99.90
35970;DHT22;22448;51.298;6.430;2023-12-04T09:54:58;0.70;99.90
35970;DHT22;22448;51.298;6.430;2023-12-04T09:57:25;0.70;99.90
35970;DHT22;22448;51.298;6.430;2023-12-04T09:59:52;0.70;99.90
35970;DHT22;22448;51.298;6.430;2023-12-04T10:02:20;0.70;99.90
35970;DHT22;22448;51.298;6.430;2023-12-04T10:04:48;0.70;99.90
35970;DHT22;22448;51.298;6.430;2023-12-04T10:07:15;0.70;99.90
35970;DHT22;22448;51.298;6.430;2023-12-04T10:09:42;0.80;99.90
35970;DHT22;22448;51.298;6.430;2023-12-04T10:12:10;0.80;99.90
35970;DHT22;22448;51.298;6.430;2023-12-04T10:14:37;0.70;99.90
35970;DHT22;22448;51.298;6.430;2023-12-04T10:17:15;0.70;99.90
35970;DHT22;22448;51.298;6.430;2023-12-04T10:19:45;0.70;99.90
35970;DHT22;22448;51.298;6.430;2023-12-04T10:22:12;0.70;99.90
35970;DHT22;22448;51.298;6.430;2023-12-04T10:24:41;0.70;99.90
35970;DHT22;22448;51.298;6.430;2023-12-04T10:27:08;0.70;99.90
35970;DHT22;22448;51.298;6.430;2023-12-04T10:29:48;0.70;99.90
35970;DHT22;22448;51.298;6.430;2023-12-04T10:32:19;0.70;99.90
35970;DHT22;22448;51.298;6.430;2023-12-04T10:34:48;0.80;99.90
35970;DHT22;22448;51.298;6.430;2023-12-04T10:37:16;0.80;99.90
35970;DHT22;22448;51.298;6.430;2023-12-04T10:39:48;0.90;99.90
35970;DHT22;22448;51.298;6.430;2023-12-04T10:42:29;0.90;99.90
35970;DHT22;22448;51.298;6.430;2023-12-04T10:44:59;0.90;99.90
35970;DHT22;22448;51.298;6.430;2023-12-04T10:47:29;0.90;99.90
35970;DHT22;22448;51.298;6.430;2023-12-04T10:49:57;0.90;99.90
35970;DHT22;22448;51.298;6.430;2023-12-04T10:52:24;1.00;99.90
35970;DHT22;22448;51.298;6.430;2023-12-04T10:54:52;1.00;99.90
35970;DHT22;22448;51.298;6.430;2023-12-04T10:57:26;1.00;99.90
35970;DHT22;22448;51.298;6.430;2023-12-04T10:59:59;1.10;99.90
35970;DHT22;22448;51.298;6.430;2023-12-04T11:02:34;1.10;99.90
35970;DHT22;22448;51.298;6.430;2023-12-04T11:05:19;1.10;99.90
35970;DHT22;22448;51.298;6.430;2023-12-04T11:07:52;1.10;99.90
35970;DHT22;22448;51.298;6.430;2023-12-04T11:10:50;1.20;99.90
35970;DHT22;22448;51.298;6.430;2023-12-04T11:13:23;1.20;99.90
35970;DHT22;22448;51.298;6.430;2023-12-04T11:15:52;1.20;99.90
35970;DHT22;22448;51.298;6.430;2023-12-04T11:18:24;1.20;99.90
35970;DHT22;22448;51.298;6.430;2023-12-04T11:20:59;1.30;99.90
35970;DHT22;22448;51.298;6.430;2023-12-04T11:23:29;1.20;99.90
35970;DHT22;22448;51.298;6.430;2023-12-04T11:25:58;1.20;99.90
35970;DHT22;22448;51.298;6.430;2023-12-04T11:28:28;1.20;99.90
35970;DHT22;22448;51.298;6.430;2023-12-04T11:30:56;1.20;99.90
35970;DHT22;22448;51.298;6.430;2023-12-04T11:33:23;1.20;99.90
35970;DHT22;22448;51.298;6.430;2023-12-04T11:35:51;1.10;99.90
35970;DHT22;22448;51.298;6.430;2023-12-04T11:38:18;1.10;99.90
35970;DHT22;22448;51.298;6.430;2023-12-04T11:40:46;1.10;99.90
35970;DHT22;22448;51.298;6.430;2023-12-04T11:43:28;1.10;99.90
35970;DHT22;22448;51.298;6.430;2023-12-04T11:46:09;1.10;99.90
35970;DHT22;22448;51.298;6.430;2023-12-04T11:48:37;1.10;99.90
35970;DHT22;22448;51.298;6.430;2023-12-04T11:51:08;1.20;99.90
35970;DHT22;22448;51.298;6.430;2023-12-04T11:53:38;1.20;99.90
35970;DHT22;22448;51.298;6.430;2023-12-04T11:56:09;1.20;99.90
35970;DHT22;22448;51.298;6.430;2023-12-04T11:58:44;1.10;99.90
35970;DHT22;22448;51.298;6.430;2023-12-04T12:01:11;1.10;99.90
35970;DHT22;22448;51.298;6.430;2023-12-04T12:03:39;1.10;99.90
35970;DHT22;22448;51.298;6.430;2023-12-04T12:06:07;1.10;99.90
35970;DHT22;22448;51.298;6.430;2023-12-04T12:08:35;1.00;99.90
35970;DHT22;22448;51.298;6.430;2023-12-04T12:11:02;1.00;99.90
35970;DHT22;22448;51.298;6.430;2023-12-04T12:13:29;1.00;99.90
35970;DHT22;22448;51.298;6.430;2023-12-04T12:15:56;0.90;99.90
35970;DHT22;22448;51.298;6.430;2023-12-04T12:18:25;0.90;99.90
35970;DHT22;22448;51.298;6.430;2023-12-04T12:20:55;0.90;99.90
35970;DHT22;22448;51.298;6.430;2023-12-04T12:23:22;0.80;99.90
35970;DHT22;22448;51.298;6.430;2023-12-04T12:25:50;0.80;99.90
35970;DHT22;22448;51.298;6.430;2023-12-04T12:28:18;0.80;99.90
35970;DHT22;22448;51.298;6.430;2023-12-04T12:30:45;0.90;99.90
35970;DHT22;22448;51.298;6.430;2023-12-04T12:33:16;0.90;99.90
35970;DHT22;22448;51.298;6.430;2023-12-04T12:35:43;0.90;99.90
35970;DHT22;22448;51.298;6.430;2023-12-04T12:38:23;0.80;99.90
35970;DHT22;22448;51.298;6.430;2023-12-04T12:40:51;0.80;99.90
35970;DHT22;22448;51.298;6.430;2023-12-04T12:43:20;0.80;99.90
35970;DHT22;22448;51.298;6.430;2023-12-04T12:45:50;0.90;99.90
35970;DHT22;22448;51.298;6.430;2023-12-04T12:48:18;0.90;99.90
35970;DHT22;22448;51.298;6.430;2023-12-04T12:50:48;0.90;99.90
35970;DHT22;22448;51.298;6.430;2023-12-04T12:53:15;1.00;99.90
35970;DHT22;22448;51.298;6.430;2023-12-04T12:55:42;0.90;99.90
35970;DHT22;22448;51.298;6.430;2023-12-04T12:58:10;0.80;99.90
35970;DHT22;22448;51.298;6.430;2023-12-04T13:00:39;0.80;99.90
35970;DHT22;22448;51.298;6.430;2023-12-04T13:03:17;0.70;99.90
35970;DHT22;22448;51.298;6.430;2023-12-04T13:05:45;0.80;99.90
35970;DHT22;22448;51.298;6.430;2023-12-04T13:08:12;0.80;99.90
35970;DHT22;22448;51.298;6.430;2023-12-04T13:10:41;0.80;99.90
35970;DHT22;22448;51.298;6.430;2023-12-04T13:13:12;0.80;99.90
35970;DHT22;22448;51.298;6.430;2023-12-04T13:15:40;0.80;99.90
35970;DHT22;22448;51.298;6.430;2023-12-04T13:18:09;0.80;99.90
35970;DHT22;22448;51.298;6.430;2023-12-04T13:20:36;0.80;99.90
35970;DHT22;22448;51.298;6.430;2023-12-04T13:23:03;0.80;99.90
35970;DHT22;22448;51.298;6.430;2023-12-04T13:25:30;0.80;99.90
35970;DHT22;22448;51.298;6.430;2023-12-04T13:27:57;0.80;99.90
35970;DHT22;22448;51.298;6.430;2023-12-04T13:30:24;0.70;99.90
35970;DHT22;22448;51.298;6.430;2023-12-04T13:32:51;0.70;99.90
35970;DHT22;22448;51.298;6.430;2023-12-04T13:35:18;0.70;99.90
35970;DHT22;22448;51.298;6.430;2023-12-04T13:37:46;0.70;99.90
35970;DHT22;22448;51.298;6.430;2023-12-04T13:40:13;0.70;99.90
35970;DHT22;22448;51.298;6.430;2023-12-04T13:42:43;0.70;99.90
35970;DHT22;22448;51.298;6.430;2023-12-04T13:45:28;0.70;99.90
35970;DHT22;22448;51.298;6.430;2023-12-04T13:47:56;0.70;99.90
35970;DHT22;22448;51.298;6.430;2023-12-04T13:50:23;0.80;99.90
35970;DHT22;22448;51.298;6.430;2023-12-04T13:52:50;0.80;99.90
35970;DHT22;22448;51.298;6.430;2023-12-04T13:55:24;0.80;99.90
35970;DHT22;22448;51.298;6.430;2023-12-04T13:58:11;0.80;99.90
35970;DHT22;22448;51.298;6.430;2023-12-04T14:00:58;0.80;99.90
35970;DHT22;22448;51.298;6.430;2023-12-04T14:03:26;0.80;99.90
35970;DHT22;22448;51.298;6.430;2023-12-04T14:05:55;0.80;99.90
35970;DHT22;22448;51.298;6.430;2023-12-04T14:08:23;0.80;99.90
35970;DHT22;22448;51.298;6.430;2023-12-04T14:10:50;0.80;99.90
35970;DHT22;22448;51.298;6.430;2023-12-04T14:13:17;0.80;99.90
35970;DHT22;22448;51.298;6.430;2023-12-04T14:15:45;0.80;99.90
35970;DHT22;22448;51.298;6.430;2023-12-04T14:18:12;0.80;99.90
35970;DHT22;22448;51.298;6.430;2023-12-04T14:20:40;0.80;99.90
35970;DHT22;22448;51.298;6.430;2023-12-04T14:23:07;0.70;99.90
35970;DHT22;22448;51.298;6.430;2023-12-04T14:25:34;0.80;99.90
35970;DHT22;22448;51.298;6.430;2023-12-04T14:28:01;0.80;99.90
35970;DHT22;22448;51.298;6.430;2023-12-04T14:30:29;0.80;99.90
35970;DHT22;22448;51.298;6.430;2023-12-04T14:32:57;0.80;99.90
35970;DHT22;22448;51.298;6.430;2023-12-04T14:35:24;0.80;99.90
35970;DHT22;22448;51.298;6.430;2023-12-04T14:37:51;0.80;99.90
35970;DHT22;22448;51.298;6.430;2023-12-04T14:40:18;0.80;99.90
35970;DHT22;22448;51.298;6.430;2023-12-04T14:42:47;0.80;99.90
35970;DHT22;22448;51.298;6.430;2023-12-04T14:45:14;0.90;99.90
35970;DHT22;22448;51.298;6.430;2023-12-04T14:47:43;0.90;99.90
35970;DHT22;22448;51.298;6.430;2023-12-04T14:50:10;0.90;99.90
35970;DHT22;22448;51.298;6.430;2023-12-04T14:52:38;0.90;99.90
35970;DHT22;22448;51.298;6.430;2023-12-04T14:55:12;0.90;99.90
35970;DHT22;22448;51.298;6.430;2023-12-04T14:57:52;0.90;99.90
35970;DHT22;22448;51.298;6.430;2023-12-04T15:00:41;0.90;99.90
35970;DHT22;22448;51.298;6.430;2023-12-04T15:03:26;0.90;99.90
35970;DHT22;22448;51.298;6.430;2023-12-04T15:06:12;0.90;99.90
35970;DHT22;22448;51.298;6.430;2023-12-04T15:08:39;0.90;99.90
35970;DHT22;22448;51.298;6.430;2023-12-04T15:11:24;0.90;99.90
35970;DHT22;22448;51.298;6.430;2023-12-04T15:14:12;0.90;99.90
35970;DHT22;22448;51.298;6.430;2023-12-04T15:17:01;0.90;99.90
35970;DHT22;22448;51.298;6.430;2023-12-04T15:19:48;0.80;99.90
35970;DHT22;22448;51.298;6.430;2023-12-04T15:22:35;0.80;99.90
35970;DHT22;22448;51.298;6.430;2023-12-04T15:25:04;0.80;99.90
35970;DHT22;22448;51.298;6.430;2023-12-04T15:27:33;0.70;99.90
35970;DHT22;22448;51.298;6.430;2023-12-04T15:30:00;0.70;99.90
35970;DHT22;22448;51.298;6.430;2023-12-04T15:32:29;0.60;99.90
35970;DHT22;22448;51.298;6.430;2023-12-04T15:34:56;0.60;99.90
35970;DHT22;22448;51.298;6.430;2023-12-04T15:37:27;0.60;99.90
35970;DHT22;22448;51.298;6.430;2023-12-04T15:39:54;0.50;99.90
35970;DHT22;22448;51.298;6.430;2023-12-04T15:42:21;0.50;99.90
35970;DHT22;22448;51.298;6.430;2023-12-04T15:44:48;0.50;99.90
35970;DHT22;22448;51.298;6.430;2023-12-04T15:47:15;0.50;99.90